sensor_id;sensor_type;location;lat;lon;timestamp;temperature;humidity
39255;DHT22;24957;51.386;-2.352;2022-09-09T00:06:26;16.70;99.90
39255;DHT22;24957;51.386;-2.352;2022-09-09T00:11:24;16.60;99.90
39255;DHT22;24957;51.386;-2.352;2022-09-09T00:13:54;16.70;99.90
39255;DHT22;24957;51.386;-2.352;2022-09-09T00:16:22;16.70;99.90
39255;DHT22;24957;51.386;-2.352;2022-09-09T00:21:18;16.80;99.90
39255;DHT22;24957;51.386;-2.352;2022-09-09T00:23:47;16.70;99.90
39255;DHT22;24957;51.386;-2.352;2022-09-09T00:28:41;16.50;99.90
39255;DHT22;24957;51.386;-2.352;2022-09-09T00:31:14;16.60;99.90
39255;DHT22;24957;51.386;-2.352;2022-09-09T00:33:40;16.50;99.90
39255;DHT22;24957;51.386;-2.352;2022-09-09T00:36:12;16.40;99.90
39255;DHT22;24957;51.386;-2.352;2022-09-09T00:38:42;16.50;99.90
39255;DHT22;24957;51.386;-2.352;2022-09-09T00:43:40;16.60;99.90
39255;DHT22;24957;51.386;-2.352;2022-09-09T00:54:14;16.80;99.90
39255;DHT22;24957;51.386;-2.352;2022-09-09T00:56:47;16.90;99.90
39255;DHT22;24957;51.386;-2.352;2022-09-09T00:59:23;16.90;99.90
39255;DHT22;24957;51.386;-2.352;2022-09-09T01:01:50;16.90;99.90
39255;DHT22;24957;51.386;-2.352;2022-09-09T01:04:18;16.90;99.90
39255;DHT22;24957;51.386;-2.352;2022-09-09T01:06:49;16.70;99.90
39255;DHT22;24957;51.386;-2.352;2022-09-09T01:14:29;16.50;99.90
39255;DHT22;24957;51.386;-2.352;2022-09-09T01:16:57;16.40;99.90
39255;DHT22;24957;51.386;-2.352;2022-09-09T01:19:35;16.40;99.90
39255;DHT22;24957;51.386;-2.352;2022-09-09T01:22:03;16.40;99.90
39255;DHT22;24957;51.386;-2.352;2022-09-09T01:27:01;16.30;99.90
39255;DHT22;24957;51.386;-2.352;2022-09-09T01:29:27;16.30;99.90
39255;DHT22;24957;51.386;-2.352;2022-09-09T01:31:54;16.30;99.90
39255;DHT22;24957;51.386;-2.352;2022-09-09T01:34:21;16.20;99.90
39255;DHT22;24957;51.386;-2.352;2022-09-09T01:39:18;16.30;99.90
39255;DHT22;24957;51.386;-2.352;2022-09-09T01:41:45;16.40;99.90
39255;DHT22;24957;51.386;-2.352;2022-09-09T01:44:10;16.50;99.90
39255;DHT22;24957;51.386;-2.352;2022-09-09T01:46:36;16.50;99.90
39255;DHT22;24957;51.386;-2.352;2022-09-09T01:49:02;16.60;99.90
39255;DHT22;24957;51.386;-2.352;2022-09-09T01:51:29;16.50;99.90
39255;DHT22;24957;51.386;-2.352;2022-09-09T01:53:54;16.50;99.90
39255;DHT22;24957;51.386;-2.352;2022-09-09T02:01:21;16.40;99.90
39255;DHT22;24957;51.386;-2.352;2022-09-09T02:03:52;16.30;99.90
39255;DHT22;24957;51.386;-2.352;2022-09-09T02:06:31;16.30;99.90
39255;DHT22;24957;51.386;-2.352;2022-09-09T02:08:59;16.30;99.90
39255;DHT22;24957;51.386;-2.352;2022-09-09T02:11:27;16.40;99.90
39255;DHT22;24957;51.386;-2.352;2022-09-09T02:13:54;16.30;99.90
39255;DHT22;24957;51.386;-2.352;2022-09-09T02:16:30;16.20;99.90
39255;DHT22;24957;51.386;-2.352;2022-09-09T02:19:06;16.20;99.90
39255;DHT22;24957;51.386;-2.352;2022-09-09T02:21:34;16.20;99.90
39255;DHT22;24957;51.386;-2.352;2022-09-09T02:24:01;16.10;99.90
39255;DHT22;24957;51.386;-2.352;2022-09-09T02:26:29;16.20;99.90
39255;DHT22;24957;51.386;-2.352;2022-09-09T02:28:57;16.20;99.90
39255;DHT22;24957;51.386;-2.352;2022-09-09T02:31:24;16.20;99.90
39255;DHT22;24957;51.386;-2.352;2022-09-09T02:33:59;16.30;99.90
39255;DHT22;24957;51.386;-2.352;2022-09-09T02:36:26;16.40;99.90
39255;DHT22;24957;51.386;-2.352;2022-09-09T02:38:54;16.30;99.90
39255;DHT22;24957;51.386;-2.352;2022-09-09T02:41:22;16.40;99.90
39255;DHT22;24957;51.386;-2.352;2022-09-09T02:43:49;16.30;99.90
39255;DHT22;24957;51.386;-2.352;2022-09-09T02:56:17;16.30;99.90
39255;DHT22;24957;51.386;-2.352;2022-09-09T02:58:43;16.30;99.90
39255;DHT22;24957;51.386;-2.352;2022-09-09T03:01:09;16.40;99.90
39255;DHT22;24957;51.386;-2.352;2022-09-09T03:03:35;16.40;99.90
39255;DHT22;24957;51.386;-2.352;2022-09-09T03:06:02;16.40;99.90
39255;DHT22;24957;51.386;-2.352;2022-09-09T03:08:28;16.40;99.90
39255;DHT22;24957;51.386;-2.352;2022-09-09T03:10:54;16.40;99.90
39255;DHT22;24957;51.386;-2.352;2022-09-09T03:13:19;16.30;99.90
39255;DHT22;24957;51.386;-2.352;2022-09-09T03:15:45;16.20;99.90
39255;DHT22;24957;51.386;-2.352;2022-09-09T03:18:11;16.20;99.90
39255;DHT22;24957;51.386;-2.352;2022-09-09T03:20:36;16.10;99.90
39255;DHT22;24957;51.386;-2.352;2022-09-09T03:23:02;16.10;99.90
39255;DHT22;24957;51.386;-2.352;2022-09-09T03:25:27;16.00;99.90
39255;DHT22;24957;51.386;-2.352;2022-09-09T03:27:55;15.80;99.90
39255;DHT22;24957;51.386;-2.352;2022-09-09T03:30:25;15.80;99.90
39255;DHT22;24957;51.386;-2.352;2022-09-09T03:32:51;15.80;99.90
39255;DHT22;24957;51.386;-2.352;2022-09-09T03:35:17;15.80;99.90
39255;DHT22;24957;51.386;-2.352;2022-09-09T03:37:43;15.80;99.90
39255;DHT22;24957;51.386;-2.352;2022-09-09T03:40:08;15.70;99.90
39255;DHT22;24957;51.386;-2.352;2022-09-09T03:42:37;15.80;99.90
39255;DHT22;24957;51.386;-2.352;2022-09-09T03:45:24;15.80;99.90
39255;DHT22;24957;51.386;-2.352;2022-09-09T03:47:49;15.70;99.90
39255;DHT22;24957;51.386;-2.352;2022-09-09T03:50:15;15.70;99.90
39255;DHT22;24957;51.386;-2.352;2022-09-09T03:52:40;15.60;99.90
39255;DHT22;24957;51.386;-2.352;2022-09-09T03:55:07;15.50;99.90
39255;DHT22;24957;51.386;-2.352;2022-09-09T03:57:33;15.50;99.90
39255;DHT22;24957;51.386;-2.352;2022-09-09T04:00:02;15.60;99.90
39255;DHT22;24957;51.386;-2.352;2022-09-09T04:02:28;15.60;99.90
39255;DHT22;24957;51.386;-2.352;2022-09-09T04:04:53;15.60;99.90
39255;DHT22;24957;51.386;-2.352;2022-09-09T04:07:19;15.80;99.90
39255;DHT22;24957;51.386;-2.352;2022-09-09T04:09:44;15.80;99.90
39255;DHT22;24957;51.386;-2.352;2022-09-09T04:12:10;16.00;99.90
39255;DHT22;24957;51.386;-2.352;2022-09-09T04:14:38;16.00;99.90
39255;DHT22;24957;51.386;-2.352;2022-09-09T04:17:04;16.10;99.90
39255;DHT22;24957;51.386;-2.352;2022-09-09T04:19:31;16.00;99.90
39255;DHT22;24957;51.386;-2.352;2022-09-09T04:21:57;16.10;99.90
39255;DHT22;24957;51.386;-2.352;2022-09-09T04:24:22;16.10;99.90
39255;DHT22;24957;51.386;-2.352;2022-09-09T04:26:48;16.10;99.90
39255;DHT22;24957;51.386;-2.352;2022-09-09T04:29:14;16.10;99.90
39255;DHT22;24957;51.386;-2.352;2022-09-09T04:31:39;16.20;99.90
39255;DHT22;24957;51.386;-2.352;2022-09-09T04:34:08;16.20;99.90
39255;DHT22;24957;51.386;-2.352;2022-09-09T04:36:33;16.20;99.90
39255;DHT22;24957;51.386;-2.352;2022-09-09T04:38:59;16.20;99.90
39255;DHT22;24957;51.386;-2.352;2022-09-09T04:41:26;16.10;99.90
39255;DHT22;24957;51.386;-2.352;2022-09-09T04:43:52;16.00;99.90
39255;DHT22;24957;51.386;-2.352;2022-09-09T04:46:19;15.90;99.90
39255;DHT22;24957;51.386;-2.352;2022-09-09T04:48:45;15.80;99.90
39255;DHT22;24957;51.386;-2.352;2022-09-09T04:51:11;15.80;99.90
39255;DHT22;24957;51.386;-2.352;2022-09-09T04:53:37;15.90;99.90
39255;DHT22;24957;51.386;-2.352;2022-09-09T04:56:10;15.90;99.90
39255;DHT22;24957;51.386;-2.352;2022-09-09T04:58:36;15.90;99.90
39255;DHT22;24957;51.386;-2.352;2022-09-09T05:01:06;15.90;99.90
39255;DHT22;24957;51.386;-2.352;2022-09-09T05:03:31;15.90;99.90
39255;DHT22;24957;51.386;-2.352;2022-09-09T05:06:04;15.90;99.90
39255;DHT22;24957;51.386;-2.352;2022-09-09T05:08:30;16.00;99.90
39255;DHT22;24957;51.386;-2.352;2022-09-09T05:10:55;16.10;99.90
39255;DHT22;24957;51.386;-2.352;2022-09-09T05:13:21;16.10;99.90
39255;DHT22;24957;51.386;-2.352;2022-09-09T05:15:51;16.10;99.90
39255;DHT22;24957;51.386;-2.352;2022-09-09T05:18:18;16.10;99.90
39255;DHT22;24957;51.386;-2.352;2022-09-09T05:20:43;16.20;99.90
39255;DHT22;24957;51.386;-2.352;2022-09-09T05:23:09;16.10;99.90
39255;DHT22;24957;51.386;-2.352;2022-09-09T05:25:36;16.20;99.90
39255;DHT22;24957;51.386;-2.352;2022-09-09T05:28:01;16.20;99.90
39255;DHT22;24957;51.386;-2.352;2022-09-09T05:30:27;16.20;99.90
39255;DHT22;24957;51.386;-2.352;2022-09-09T05:32:55;16.20;99.90
39255;DHT22;24957;51.386;-2.352;2022-09-09T05:35:20;16.30;99.90
39255;DHT22;24957;51.386;-2.352;2022-09-09T05:37:46;16.20;99.90
39255;DHT22;24957;51.386;-2.352;2022-09-09T05:40:13;16.30;99.90
39255;DHT22;24957;51.386;-2.352;2022-09-09T05:42:38;16.30;99.90
39255;DHT22;24957;51.386;-2.352;2022-09-09T05:45:05;16.20;99.90
39255;DHT22;24957;51.386;-2.352;2022-09-09T05:47:30;16.30;99.90
39255;DHT22;24957;51.386;-2.352;2022-09-09T05:49:56;16.20;99.90
39255;DHT22;24957;51.386;-2.352;2022-09-09T05:52:21;16.30;99.90
39255;DHT22;24957;51.386;-2.352;2022-09-09T05:54:48;16.30;99.90
39255;DHT22;24957;51.386;-2.352;2022-09-09T05:57:14;16.30;99.90
39255;DHT22;24957;51.386;-2.352;2022-09-09T05:59:40;16.30;99.90
39255;DHT22;24957;51.386;-2.352;2022-09-09T06:02:05;16.20;99.90
39255;DHT22;24957;51.386;-2.352;2022-09-09T06:04:31;16.20;99.90
39255;DHT22;24957;51.386;-2.352;2022-09-09T06:06:57;16.20;99.90
39255;DHT22;24957;51.386;-2.352;2022-09-09T06:09:22;16.20;99.90
39255;DHT22;24957;51.386;-2.352;2022-09-09T06:11:48;16.20;99.90
39255;DHT22;24957;51.386;-2.352;2022-09-09T06:14:13;16.30;99.90
39255;DHT22;24957;51.386;-2.352;2022-09-09T06:16:39;16.30;99.90
39255;DHT22;24957;51.386;-2.352;2022-09-09T06:19:09;16.20;99.90
39255;DHT22;24957;51.386;-2.352;2022-09-09T06:21:35;16.10;99.90
39255;DHT22;24957;51.386;-2.352;2022-09-09T06:24:02;16.20;99.90
39255;DHT22;24957;51.386;-2.352;2022-09-09T06:26:35;16.20;99.90
39255;DHT22;24957;51.386;-2.352;2022-09-09T06:29:02;16.20;99.90
39255;DHT22;24957;51.386;-2.352;2022-09-09T06:31:29;16.20;99.90
39255;DHT22;24957;51.386;-2.352;2022-09-09T06:33:59;16.10;99.90
39255;DHT22;24957;51.386;-2.352;2022-09-09T06:36:26;16.20;99.90
39255;DHT22;24957;51.386;-2.352;2022-09-09T06:38:52;16.20;99.90
39255;DHT22;24957;51.386;-2.352;2022-09-09T06:41:18;16.10;99.90
39255;DHT22;24957;51.386;-2.352;2022-09-09T06:43:45;16.10;99.90
39255;DHT22;24957;51.386;-2.352;2022-09-09T06:46:15;16.20;99.90
39255;DHT22;24957;51.386;-2.352;2022-09-09T06:48:41;16.20;99.90
39255;DHT22;24957;51.386;-2.352;2022-09-09T06:51:10;16.20;99.90
39255;DHT22;24957;51.386;-2.352;2022-09-09T06:53:37;16.20;99.90
39255;DHT22;24957;51.386;-2.352;2022-09-09T06:56:24;16.20;99.90
39255;DHT22;24957;51.386;-2.352;2022-09-09T06:58:49;16.30;99.90
39255;DHT22;24957;51.386;-2.352;2022-09-09T07:01:16;16.20;99.90
39255;DHT22;24957;51.386;-2.352;2022-09-09T07:03:42;16.20;99.90
39255;DHT22;24957;51.386;-2.352;2022-09-09T07:06:08;16.20;99.90
39255;DHT22;24957;51.386;-2.352;2022-09-09T07:08:40;16.30;99.90
39255;DHT22;24957;51.386;-2.352;2022-09-09T07:11:06;16.50;99.90
39255;DHT22;24957;51.386;-2.352;2022-09-09T07:13:32;16.50;99.90
39255;DHT22;24957;51.386;-2.352;2022-09-09T07:16:07;16.70;99.90
39255;DHT22;24957;51.386;-2.352;2022-09-09T07:18:33;16.70;99.90
39255;DHT22;24957;51.386;-2.352;2022-09-09T07:21:00;16.80;99.90
39255;DHT22;24957;51.386;-2.352;2022-09-09T07:23:27;16.80;99.90
39255;DHT22;24957;51.386;-2.352;2022-09-09T07:25:53;16.90;99.90
39255;DHT22;24957;51.386;-2.352;2022-09-09T07:28:19;16.90;99.90
39255;DHT22;24957;51.386;-2.352;2022-09-09T07:30:52;17.10;99.90
39255;DHT22;24957;51.386;-2.352;2022-09-09T07:33:18;17.10;99.90
39255;DHT22;24957;51.386;-2.352;2022-09-09T07:35:45;17.20;99.90
39255;DHT22;24957;51.386;-2.352;2022-09-09T07:38:11;17.30;99.90
39255;DHT22;24957;51.386;-2.352;2022-09-09T07:40:36;17.30;99.90
39255;DHT22;24957;51.386;-2.352;2022-09-09T07:43:02;17.30;99.90
39255;DHT22;24957;51.386;-2.352;2022-09-09T07:45:28;17.20;99.90
39255;DHT22;24957;51.386;-2.352;2022-09-09T07:47:54;17.20;99.90
39255;DHT22;24957;51.386;-2.352;2022-09-09T07:50:22;17.20;99.90
39255;DHT22;24957;51.386;-2.352;2022-09-09T07:52:48;17.20;99.90
39255;DHT22;24957;51.386;-2.352;2022-09-09T07:55:13;17.10;99.90
39255;DHT22;24957;51.386;-2.352;2022-09-09T07:57:40;17.00;99.90
39255;DHT22;24957;51.386;-2.352;2022-09-09T08:00:05;16.90;99.90
39255;DHT22;24957;51.386;-2.352;2022-09-09T08:02:31;16.80;99.90
39255;DHT22;24957;51.386;-2.352;2022-09-09T08:04:57;16.80;99.90
39255;DHT22;24957;51.386;-2.352;2022-09-09T08:07:22;16.80;99.90
39255;DHT22;24957;51.386;-2.352;2022-09-09T08:09:48;16.90;99.90
39255;DHT22;24957;51.386;-2.352;2022-09-09T08:12:15;16.90;99.90
39255;DHT22;24957;51.386;-2.352;2022-09-09T08:14:40;17.00;99.90
39255;DHT22;24957;51.386;-2.352;2022-09-09T08:17:06;17.10;99.90
39255;DHT22;24957;51.386;-2.352;2022-09-09T08:19:32;17.20;99.90
39255;DHT22;24957;51.386;-2.352;2022-09-09T08:22:01;17.40;99.90
39255;DHT22;24957;51.386;-2.352;2022-09-09T08:24:28;17.50;99.90
39255;DHT22;24957;51.386;-2.352;2022-09-09T08:26:53;17.60;99.90
39255;DHT22;24957;51.386;-2.352;2022-09-09T08:29:19;17.80;99.90
39255;DHT22;24957;51.386;-2.352;2022-09-09T08:31:46;17.90;99.90
39255;DHT22;24957;51.386;-2.352;2022-09-09T08:34:12;18.00;99.90
39255;DHT22;24957;51.386;-2.352;2022-09-09T08:36:40;18.00;99.90
39255;DHT22;24957;51.386;-2.352;2022-09-09T08:39:08;17.90;99.90
39255;DHT22;24957;51.386;-2.352;2022-09-09T08:49:13;18.00;99.90
39255;DHT22;24957;51.386;-2.352;2022-09-09T08:51:41;18.00;99.90
39255;DHT22;24957;51.386;-2.352;2022-09-09T08:54:07;18.00;99.90
39255;DHT22;24957;51.386;-2.352;2022-09-09T08:56:34;17.90;99.90
39255;DHT22;24957;51.386;-2.352;2022-09-09T08:59:01;17.80;99.90
39255;DHT22;24957;51.386;-2.352;2022-09-09T09:09:36;17.70;99.90
39255;DHT22;24957;51.386;-2.352;2022-09-09T09:12:10;17.60;99.90
39255;DHT22;24957;51.386;-2.352;2022-09-09T09:14:39;17.60;99.90
39255;DHT22;24957;51.386;-2.352;2022-09-09T09:17:06;17.70;99.90
39255;DHT22;24957;51.386;-2.352;2022-09-09T09:19:35;17.60;99.90
39255;DHT22;24957;51.386;-2.352;2022-09-09T09:22:14;17.70;99.90
39255;DHT22;24957;51.386;-2.352;2022-09-09T09:27:14;17.80;99.90
39255;DHT22;24957;51.386;-2.352;2022-09-09T09:29:40;17.90;99.90
39255;DHT22;24957;51.386;-2.352;2022-09-09T09:32:05;18.00;99.90
39255;DHT22;24957;51.386;-2.352;2022-09-09T09:34:35;18.00;99.90
39255;DHT22;24957;51.386;-2.352;2022-09-09T09:37:00;18.00;99.90
39255;DHT22;24957;51.386;-2.352;2022-09-09T09:39:30;18.00;99.90
39255;DHT22;24957;51.386;-2.352;2022-09-09T09:41:56;18.20;99.90
39255;DHT22;24957;51.386;-2.352;2022-09-09T09:44:28;18.30;99.90
39255;DHT22;24957;51.386;-2.352;2022-09-09T09:47:07;18.20;99.90
39255;DHT22;24957;51.386;-2.352;2022-09-09T09:49:33;18.00;99.90
39255;DHT22;24957;51.386;-2.352;2022-09-09T09:52:02;17.90;99.90
39255;DHT22;24957;51.386;-2.352;2022-09-09T09:54:29;17.90;99.90
39255;DHT22;24957;51.386;-2.352;2022-09-09T09:56:55;17.90;99.90
39255;DHT22;24957;51.386;-2.352;2022-09-09T10:01:52;17.60;99.90
39255;DHT22;24957;51.386;-2.352;2022-09-09T10:04:19;17.30;99.90
39255;DHT22;24957;51.386;-2.352;2022-09-09T10:06:46;17.20;99.90
39255;DHT22;24957;51.386;-2.352;2022-09-09T10:09:28;17.30;99.90
39255;DHT22;24957;51.386;-2.352;2022-09-09T10:14:38;17.30;99.90
39255;DHT22;24957;51.386;-2.352;2022-09-09T10:19:59;17.70;99.90
39255;DHT22;24957;51.386;-2.352;2022-09-09T10:22:33;17.70;99.90
39255;DHT22;24957;51.386;-2.352;2022-09-09T10:30:18;17.70;99.90
39255;DHT22;24957;51.386;-2.352;2022-09-09T10:32:48;17.60;99.90
39255;DHT22;24957;51.386;-2.352;2022-09-09T10:40:39;17.70;99.90
39255;DHT22;24957;51.386;-2.352;2022-09-09T10:45:58;18.00;99.90
39255;DHT22;24957;51.386;-2.352;2022-09-09T10:48:35;18.10;99.90
39255;DHT22;24957;51.386;-2.352;2022-09-09T10:51:06;18.10;99.90
39255;DHT22;24957;51.386;-2.352;2022-09-09T10:56:32;18.10;99.90
39255;DHT22;24957;51.386;-2.352;2022-09-09T11:03:55;18.10;99.90
39255;DHT22;24957;51.386;-2.352;2022-09-09T11:06:28;18.20;99.90
39255;DHT22;24957;51.386;-2.352;2022-09-09T11:08:54;18.10;99.90
39255;DHT22;24957;51.386;-2.352;2022-09-09T11:11:32;18.40;99.90
39255;DHT22;24957;51.386;-2.352;2022-09-09T11:14:03;18.40;99.90
39255;DHT22;24957;51.386;-2.352;2022-09-09T11:16:35;18.30;99.90
39255;DHT22;24957;51.386;-2.352;2022-09-09T11:19:13;18.30;99.90
39255;DHT22;24957;51.386;-2.352;2022-09-09T11:21:47;18.40;99.90
39255;DHT22;24957;51.386;-2.352;2022-09-09T11:24:23;18.60;99.90
39255;DHT22;24957;51.386;-2.352;2022-09-09T11:26:58;18.70;99.90
39255;DHT22;24957;51.386;-2.352;2022-09-09T11:39:49;18.90;99.90
39255;DHT22;24957;51.386;-2.352;2022-09-09T11:42:22;18.80;99.90
39255;DHT22;24957;51.386;-2.352;2022-09-09T11:44:48;18.90;99.90
39255;DHT22;24957;51.386;-2.352;2022-09-09T11:47:26;18.90;99.90
39255;DHT22;24957;51.386;-2.352;2022-09-09T11:50:40;19.10;99.90
39255;DHT22;24957;51.386;-2.352;2022-09-09T11:55:24;19.60;99.90
39255;DHT22;24957;51.386;-2.352;2022-09-09T11:57:58;19.70;99.90
39255;DHT22;24957;51.386;-2.352;2022-09-09T12:00:44;19.80;99.90
39255;DHT22;24957;51.386;-2.352;2022-09-09T12:05:54;19.70;99.90
39255;DHT22;24957;51.386;-2.352;2022-09-09T12:08:23;19.80;99.90
39255;DHT22;24957;51.386;-2.352;2022-09-09T12:10:56;19.90;99.90
39255;DHT22;24957;51.386;-2.352;2022-09-09T12:13:22;20.00;99.90
39255;DHT22;24957;51.386;-2.352;2022-09-09T12:15:49;20.00;99.90
39255;DHT22;24957;51.386;-2.352;2022-09-09T12:18:34;20.00;99.90
39255;DHT22;24957;51.386;-2.352;2022-09-09T12:28:18;19.90;99.90
39255;DHT22;24957;51.386;-2.352;2022-09-09T12:33:17;19.80;99.90
39255;DHT22;24957;51.386;-2.352;2022-09-09T12:35:43;19.80;99.90
39255;DHT22;24957;51.386;-2.352;2022-09-09T12:38:12;19.90;99.90
39255;DHT22;24957;51.386;-2.352;2022-09-09T12:40:39;20.00;99.90
39255;DHT22;24957;51.386;-2.352;2022-09-09T12:43:20;20.00;99.90
39255;DHT22;24957;51.386;-2.352;2022-09-09T12:45:47;20.00;99.90
39255;DHT22;24957;51.386;-2.352;2022-09-09T12:48:15;20.20;99.90
39255;DHT22;24957;51.386;-2.352;2022-09-09T12:50:49;20.00;99.90
39255;DHT22;24957;51.386;-2.352;2022-09-09T12:55:48;20.00;99.90
39255;DHT22;24957;51.386;-2.352;2022-09-09T12:58:16;20.00;99.90
39255;DHT22;24957;51.386;-2.352;2022-09-09T13:00:48;19.90;99.90
39255;DHT22;24957;51.386;-2.352;2022-09-09T13:03:16;20.00;99.90
39255;DHT22;24957;51.386;-2.352;2022-09-09T13:05:42;19.90;99.90
39255;DHT22;24957;51.386;-2.352;2022-09-09T13:08:11;19.90;99.90
39255;DHT22;24957;51.386;-2.352;2022-09-09T13:10:38;19.70;99.90
39255;DHT22;24957;51.386;-2.352;2022-09-09T13:13:15;19.70;99.90
39255;DHT22;24957;51.386;-2.352;2022-09-09T13:15:48;19.80;99.90
39255;DHT22;24957;51.386;-2.352;2022-09-09T13:18:14;19.80;99.90
39255;DHT22;24957;51.386;-2.352;2022-09-09T13:20:45;19.60;99.90
39255;DHT22;24957;51.386;-2.352;2022-09-09T13:23:11;19.70;99.90
39255;DHT22;24957;51.386;-2.352;2022-09-09T13:25:37;19.40;99.90
39255;DHT22;24957;51.386;-2.352;2022-09-09T13:28:04;19.30;99.90
39255;DHT22;24957;51.386;-2.352;2022-09-09T13:30:31;19.20;99.90
39255;DHT22;24957;51.386;-2.352;2022-09-09T13:38:52;19.90;99.90
39255;DHT22;24957;51.386;-2.352;2022-09-09T13:41:22;19.70;99.90
39255;DHT22;24957;51.386;-2.352;2022-09-09T13:43:49;19.40;99.90
39255;DHT22;24957;51.386;-2.352;2022-09-09T13:46:32;19.50;99.90
39255;DHT22;24957;51.386;-2.352;2022-09-09T13:49:02;19.60;99.90
39255;DHT22;24957;51.386;-2.352;2022-09-09T13:54:04;19.70;99.90
39255;DHT22;24957;51.386;-2.352;2022-09-09T13:56:31;19.70;99.90
39255;DHT22;24957;51.386;-2.352;2022-09-09T13:58:57;19.80;99.90
39255;DHT22;24957;51.386;-2.352;2022-09-09T14:01:23;19.80;99.90
39255;DHT22;24957;51.386;-2.352;2022-09-09T14:03:49;19.90;99.90
39255;DHT22;24957;51.386;-2.352;2022-09-09T14:06:16;20.00;99.90
39255;DHT22;24957;51.386;-2.352;2022-09-09T14:08:44;20.20;99.90
39255;DHT22;24957;51.386;-2.352;2022-09-09T14:11:12;20.30;99.90
39255;DHT22;24957;51.386;-2.352;2022-09-09T14:13:38;20.50;99.90
39255;DHT22;24957;51.386;-2.352;2022-09-09T14:16:03;20.60;99.90
39255;DHT22;24957;51.386;-2.352;2022-09-09T14:18:29;20.70;99.90
39255;DHT22;24957;51.386;-2.352;2022-09-09T14:20:54;20.70;99.90
39255;DHT22;24957;51.386;-2.352;2022-09-09T14:23:20;20.60;99.90
39255;DHT22;24957;51.386;-2.352;2022-09-09T14:25:47;20.60;99.90
39255;DHT22;24957;51.386;-2.352;2022-09-09T14:28:14;20.60;99.90
39255;DHT22;24957;51.386;-2.352;2022-09-09T14:30:40;20.30;99.90
39255;DHT22;24957;51.386;-2.352;2022-09-09T14:33:07;20.20;99.90
39255;DHT22;24957;51.386;-2.352;2022-09-09T14:35:33;20.20;99.90
39255;DHT22;24957;51.386;-2.352;2022-09-09T14:37:59;20.40;99.90
39255;DHT22;24957;51.386;-2.352;2022-09-09T14:40:26;20.50;99.90
39255;DHT22;24957;51.386;-2.352;2022-09-09T14:42:52;20.30;99.90
39255;DHT22;24957;51.386;-2.352;2022-09-09T14:45:18;20.30;99.90
39255;DHT22;24957;51.386;-2.352;2022-09-09T14:47:43;20.50;99.90
39255;DHT22;24957;51.386;-2.352;2022-09-09T14:50:10;20.30;99.90
39255;DHT22;24957;51.386;-2.352;2022-09-09T14:52:37;20.30;99.90
39255;DHT22;24957;51.386;-2.352;2022-09-09T14:55:03;20.20;99.90
39255;DHT22;24957;51.386;-2.352;2022-09-09T14:57:29;20.20;99.90
39255;DHT22;24957;51.386;-2.352;2022-09-09T14:59:55;20.30;99.90
39255;DHT22;24957;51.386;-2.352;2022-09-09T15:02:21;20.30;99.90
39255;DHT22;24957;51.386;-2.352;2022-09-09T15:04:47;20.40;99.90
39255;DHT22;24957;51.386;-2.352;2022-09-09T15:07:15;20.40;99.90
39255;DHT22;24957;51.386;-2.352;2022-09-09T15:09:41;20.50;99.90
39255;DHT22;24957;51.386;-2.352;2022-09-09T15:12:07;20.50;99.90
39255;DHT22;24957;51.386;-2.352;2022-09-09T15:14:32;20.50;99.90
39255;DHT22;24957;51.386;-2.352;2022-09-09T15:16:58;20.40;99.90
39255;DHT22;24957;51.386;-2.352;2022-09-09T15:19:24;20.20;99.90
39255;DHT22;24957;51.386;-2.352;2022-09-09T15:21:49;20.20;99.90
39255;DHT22;24957;51.386;-2.352;2022-09-09T15:24:15;20.40;99.90
39255;DHT22;24957;51.386;-2.352;2022-09-09T15:26:41;20.70;99.90
39255;DHT22;24957;51.386;-2.352;2022-09-09T15:29:07;21.10;99.90
39255;DHT22;24957;51.386;-2.352;2022-09-09T15:31:33;21.40;99.90
39255;DHT22;24957;51.386;-2.352;2022-09-09T15:34:00;21.70;99.90
39255;DHT22;24957;51.386;-2.352;2022-09-09T15:36:30;21.70;99.90
39255;DHT22;24957;51.386;-2.352;2022-09-09T15:38:57;21.70;99.90
39255;DHT22;24957;51.386;-2.352;2022-09-09T15:41:23;22.00;99.90
39255;DHT22;24957;51.386;-2.352;2022-09-09T15:43:50;22.70;99.90
39255;DHT22;24957;51.386;-2.352;2022-09-09T15:46:29;23.70;99.90
39255;DHT22;24957;51.386;-2.352;2022-09-09T15:48:55;24.00;99.90
39255;DHT22;24957;51.386;-2.352;2022-09-09T15:51:22;23.70;99.90
39255;DHT22;24957;51.386;-2.352;2022-09-09T15:53:48;23.50;98.60
39255;DHT22;24957;51.386;-2.352;2022-09-09T15:56:14;22.90;99.90
39255;DHT22;24957;51.386;-2.352;2022-09-09T15:58:39;22.20;99.90
39255;DHT22;24957;51.386;-2.352;2022-09-09T16:01:06;21.80;99.90
39255;DHT22;24957;51.386;-2.352;2022-09-09T16:03:36;21.30;99.90
39255;DHT22;24957;51.386;-2.352;2022-09-09T16:06:02;21.00;99.90
39255;DHT22;24957;51.386;-2.352;2022-09-09T16:08:47;20.80;99.90
39255;DHT22;24957;51.386;-2.352;2022-09-09T16:11:15;20.50;99.90
39255;DHT22;24957;51.386;-2.352;2022-09-09T16:13:41;20.30;99.90
39255;DHT22;24957;51.386;-2.352;2022-09-09T16:16:08;20.10;99.90
39255;DHT22;24957;51.386;-2.352;2022-09-09T16:18:38;20.00;99.90
39255;DHT22;24957;51.386;-2.352;2022-09-09T16:21:04;19.90;99.90
39255;DHT22;24957;51.386;-2.352;2022-09-09T16:23:33;19.80;99.90
39255;DHT22;24957;51.386;-2.352;2022-09-09T16:25:59;19.70;99.90
39255;DHT22;24957;51.386;-2.352;2022-09-09T16:28:25;19.60;99.90
39255;DHT22;24957;51.386;-2.352;2022-09-09T16:30:50;19.60;99.90
39255;DHT22;24957;51.386;-2.352;2022-09-09T16:33:16;19.60;99.90
39255;DHT22;24957;51.386;-2.352;2022-09-09T16:35:42;19.60;99.90
39255;DHT22;24957;51.386;-2.352;2022-09-09T16:38:08;19.60;99.90
39255;DHT22;24957;51.386;-2.352;2022-09-09T16:40:37;19.50;99.90
39255;DHT22;24957;51.386;-2.352;2022-09-09T16:43:03;19.40;99.90
39255;DHT22;24957;51.386;-2.352;2022-09-09T16:45:29;19.50;99.90
39255;DHT22;24957;51.386;-2.352;2022-09-09T16:47:55;19.50;99.90
39255;DHT22;24957;51.386;-2.352;2022-09-09T16:50:21;19.50;99.90
39255;DHT22;24957;51.386;-2.352;2022-09-09T16:52:47;19.70;99.90
39255;DHT22;24957;51.386;-2.352;2022-09-09T16:55:12;19.90;99.90
39255;DHT22;24957;51.386;-2.352;2022-09-09T16:57:39;20.10;99.90
39255;DHT22;24957;51.386;-2.352;2022-09-09T17:00:04;20.10;99.90
39255;DHT22;24957;51.386;-2.352;2022-09-09T17:02:35;20.10;99.90
39255;DHT22;24957;51.386;-2.352;2022-09-09T17:05:00;20.10;99.90
39255;DHT22;24957;51.386;-2.352;2022-09-09T17:07:26;20.00;99.90
39255;DHT22;24957;51.386;-2.352;2022-09-09T17:09:52;20.00;99.90
39255;DHT22;24957;51.386;-2.352;2022-09-09T17:12:18;20.10;99.90
39255;DHT22;24957;51.386;-2.352;2022-09-09T17:14:43;20.10;99.90
39255;DHT22;24957;51.386;-2.352;2022-09-09T17:17:10;20.10;99.90
39255;DHT22;24957;51.386;-2.352;2022-09-09T17:19:36;20.10;99.90
39255;DHT22;24957;51.386;-2.352;2022-09-09T17:22:01;19.90;99.90
39255;DHT22;24957;51.386;-2.352;2022-09-09T17:24:27;19.90;99.90
39255;DHT22;24957;51.386;-2.352;2022-09-09T17:26:54;19.80;99.90
39255;DHT22;24957;51.386;-2.352;2022-09-09T17:29:19;19.80;99.90
39255;DHT22;24957;51.386;-2.352;2022-09-09T17:31:45;19.60;99.90